sensor_id;sensor_type;location;lat;lon;timestamp;P1;durP1;ratioP1;P2;durP2;ratioP2
70169;SDS011;57543;45.442;9.212;2022-09-30T00:01:22;6.70;;;4.65;;
70169;SDS011;57543;45.442;9.212;2022-09-30T00:04:29;7.83;;;4.43;;
70169;SDS011;57543;45.442;9.212;2022-09-30T00:07:28;6.90;;;4.05;;
70169;SDS011;57543;45.442;9.212;2022-09-30T00:10:32;6.78;;;4.32;;
70169;SDS011;57543;45.442;9.212;2022-09-30T00:13:36;6.43;;;4.05;;
70169;SDS011;57543;45.442;9.212;2022-09-30T00:16:42;7.47;;;3.97;;
70169;SDS011;57543;45.442;9.212;2022-09-30T00:23:10;6.70;;;3.90;;
70169;SDS011;57543;45.442;9.212;2022-09-30T00:26:15;6.22;;;4.00;;
70169;SDS011;57543;45.442;9.212;2022-09-30T00:29:20;5.72;;;3.47;;
70169;SDS011;57543;45.442;9.212;2022-09-30T00:32:24;5.60;;;3.60;;
70169;SDS011;57543;45.442;9.212;2022-09-30T00:35:28;7.77;;;4.03;;
70169;SDS011;57543;45.442;9.212;2022-09-30T00:38:32;5.88;;;3.97;;
70169;SDS011;57543;45.442;9.212;2022-09-30T00:41:36;5.85;;;4.28;;
70169;SDS011;57543;45.442;9.212;2022-09-30T00:44:44;6.38;;;3.67;;
70169;SDS011;57543;45.442;9.212;2022-09-30T00:51:08;6.47;;;3.50;;
70169;SDS011;57543;45.442;9.212;2022-09-30T00:54:14;6.18;;;3.75;;
70169;SDS011;57543;45.442;9.212;2022-09-30T00:57:23;5.43;;;3.33;;
70169;SDS011;57543;45.442;9.212;2022-09-30T01:00:27;6.43;;;3.40;;
70169;SDS011;57543;45.442;9.212;2022-09-30T01:03:31;5.63;;;3.63;;
70169;SDS011;57543;45.442;9.212;2022-09-30T01:06:39;5.67;;;3.83;;
70169;SDS011;57543;45.442;9.212;2022-09-30T01:09:43;5.53;;;3.33;;
70169;SDS011;57543;45.442;9.212;2022-09-30T01:12:47;5.50;;;3.40;;
70169;SDS011;57543;45.442;9.212;2022-09-30T01:39:50;5.20;;;3.00;;
70169;SDS011;57543;45.442;9.212;2022-09-30T01:46:33;5.10;;;3.13;;
70169;SDS011;57543;45.442;9.212;2022-09-30T01:49:42;5.40;;;3.20;;
70169;SDS011;57543;45.442;9.212;2022-09-30T01:56:34;5.37;;;3.10;;
70169;SDS011;57543;45.442;9.212;2022-09-30T01:59:45;5.35;;;2.95;;
70169;SDS011;57543;45.442;9.212;2022-09-30T02:03:07;4.53;;;2.67;;
70169;SDS011;57543;45.442;9.212;2022-09-30T02:06:17;5.03;;;3.10;;
70169;SDS011;57543;45.442;9.212;2022-09-30T02:09:28;5.43;;;3.08;;
70169;SDS011;57543;45.442;9.212;2022-09-30T02:12:38;5.00;;;3.37;;
70169;SDS011;57543;45.442;9.212;2022-09-30T02:15:51;5.90;;;3.10;;
70169;SDS011;57543;45.442;9.212;2022-09-30T02:19:02;4.68;;;2.95;;
70169;SDS011;57543;45.442;9.212;2022-09-30T02:25:24;5.00;;;3.00;;
70169;SDS011;57543;45.442;9.212;2022-09-30T02:28:34;5.43;;;2.80;;
70169;SDS011;57543;45.442;9.212;2022-09-30T02:31:41;5.32;;;3.00;;
70169;SDS011;57543;45.442;9.212;2022-09-30T02:34:49;5.20;;;3.08;;
70169;SDS011;57543;45.442;9.212;2022-09-30T02:37:59;5.88;;;2.97;;
70169;SDS011;57543;45.442;9.212;2022-09-30T02:41:15;5.07;;;3.00;;
70169;SDS011;57543;45.442;9.212;2022-09-30T02:44:24;4.90;;;3.20;;
70169;SDS011;57543;45.442;9.212;2022-09-30T02:47:33;5.72;;;3.28;;
70169;SDS011;57543;45.442;9.212;2022-09-30T02:50:50;5.90;;;3.35;;
70169;SDS011;57543;45.442;9.212;2022-09-30T03:00:39;6.07;;;3.30;;
70169;SDS011;57543;45.442;9.212;2022-09-30T03:03:44;5.68;;;3.25;;
70169;SDS011;57543;45.442;9.212;2022-09-30T03:06:51;6.85;;;3.58;;
70169;SDS011;57543;45.442;9.212;2022-09-30T03:09:55;7.30;;;3.58;;
70169;SDS011;57543;45.442;9.212;2022-09-30T03:16:32;4.97;;;2.90;;
70169;SDS011;57543;45.442;9.212;2022-09-30T03:19:51;4.63;;;2.83;;
70169;SDS011;57543;45.442;9.212;2022-09-30T03:29:56;5.00;;;2.65;;
70169;SDS011;57543;45.442;9.212;2022-09-30T03:33:21;5.30;;;2.97;;
70169;SDS011;57543;45.442;9.212;2022-09-30T03:36:40;6.97;;;2.72;;
70169;SDS011;57543;45.442;9.212;2022-09-30T03:43:24;4.50;;;2.50;;
70169;SDS011;57543;45.442;9.212;2022-09-30T03:46:55;6.43;;;2.08;;
70169;SDS011;57543;45.442;9.212;2022-09-30T03:50:00;6.07;;;2.50;;
70169;SDS011;57543;45.442;9.212;2022-09-30T03:53:08;4.07;;;2.15;;
70169;SDS011;57543;45.442;9.212;2022-09-30T03:56:14;4.35;;;2.13;;
70169;SDS011;57543;45.442;9.212;2022-09-30T03:59:24;4.97;;;2.28;;
70169;SDS011;57543;45.442;9.212;2022-09-30T04:02:30;4.18;;;2.20;;
70169;SDS011;57543;45.442;9.212;2022-09-30T04:05:34;3.90;;;2.20;;
70169;SDS011;57543;45.442;9.212;2022-09-30T04:08:38;5.03;;;2.30;;
70169;SDS011;57543;45.442;9.212;2022-09-30T04:11:42;4.38;;;2.05;;
70169;SDS011;57543;45.442;9.212;2022-09-30T04:14:46;4.05;;;1.75;;
70169;SDS011;57543;45.442;9.212;2022-09-30T04:17:49;4.00;;;1.95;;
70169;SDS011;57543;45.442;9.212;2022-09-30T04:20:53;4.50;;;2.03;;
70169;SDS011;57543;45.442;9.212;2022-09-30T04:23:57;4.05;;;2.05;;
70169;SDS011;57543;45.442;9.212;2022-09-30T04:27:01;3.50;;;1.92;;
70169;SDS011;57543;45.442;9.212;2022-09-30T04:30:05;4.75;;;1.90;;
70169;SDS011;57543;45.442;9.212;2022-09-30T04:33:12;5.32;;;2.10;;
70169;SDS011;57543;45.442;9.212;2022-09-30T04:36:16;5.20;;;2.10;;
70169;SDS011;57543;45.442;9.212;2022-09-30T04:39:20;4.18;;;2.03;;
70169;SDS011;57543;45.442;9.212;2022-09-30T04:42:23;4.65;;;2.28;;
70169;SDS011;57543;45.442;9.212;2022-09-30T04:45:27;5.07;;;2.22;;
70169;SDS011;57543;45.442;9.212;2022-09-30T04:48:31;3.95;;;2.17;;
70169;SDS011;57543;45.442;9.212;2022-09-30T04:51:35;4.07;;;2.20;;
70169;SDS011;57543;45.442;9.212;2022-09-30T04:54:40;4.80;;;2.10;;
70169;SDS011;57543;45.442;9.212;2022-09-30T04:57:44;4.50;;;2.20;;
70169;SDS011;57543;45.442;9.212;2022-09-30T05:00:48;3.70;;;1.90;;
70169;SDS011;57543;45.442;9.212;2022-09-30T05:03:52;4.65;;;2.25;;
70169;SDS011;57543;45.442;9.212;2022-09-30T05:06:57;4.03;;;2.10;;
70169;SDS011;57543;45.442;9.212;2022-09-30T05:10:01;4.72;;;2.13;;
70169;SDS011;57543;45.442;9.212;2022-09-30T05:13:04;4.72;;;2.00;;
70169;SDS011;57543;45.442;9.212;2022-09-30T05:16:09;5.88;;;2.22;;
70169;SDS011;57543;45.442;9.212;2022-09-30T05:19:13;3.85;;;1.80;;
70169;SDS011;57543;45.442;9.212;2022-09-30T05:22:16;4.73;;;2.17;;
70169;SDS011;57543;45.442;9.212;2022-09-30T05:25:20;4.97;;;2.10;;
70169;SDS011;57543;45.442;9.212;2022-09-30T05:28:23;4.15;;;1.77;;
70169;SDS011;57543;45.442;9.212;2022-09-30T05:31:28;4.47;;;1.85;;
70169;SDS011;57543;45.442;9.212;2022-09-30T05:34:32;5.53;;;2.10;;
70169;SDS011;57543;45.442;9.212;2022-09-30T05:37:35;4.50;;;2.07;;
70169;SDS011;57543;45.442;9.212;2022-09-30T05:40:39;4.70;;;2.30;;
70169;SDS011;57543;45.442;9.212;2022-09-30T05:43:43;5.07;;;2.38;;
70169;SDS011;57543;45.442;9.212;2022-09-30T05:46:47;4.57;;;2.42;;
70169;SDS011;57543;45.442;9.212;2022-09-30T05:49:51;5.38;;;2.40;;
70169;SDS011;57543;45.442;9.212;2022-09-30T05:52:54;4.87;;;2.60;;
70169;SDS011;57543;45.442;9.212;2022-09-30T05:55:59;5.97;;;2.75;;
70169;SDS011;57543;45.442;9.212;2022-09-30T05:59:03;6.80;;;3.08;;
70169;SDS011;57543;45.442;9.212;2022-09-30T06:02:08;5.38;;;2.85;;
70169;SDS011;57543;45.442;9.212;2022-09-30T06:05:13;4.15;;;2.20;;
70169;SDS011;57543;45.442;9.212;2022-09-30T06:08:16;4.37;;;2.20;;
70169;SDS011;57543;45.442;9.212;2022-09-30T06:11:20;4.38;;;2.08;;
70169;SDS011;57543;45.442;9.212;2022-09-30T06:14:25;3.60;;;1.90;;
70169;SDS011;57543;45.442;9.212;2022-09-30T06:17:31;4.43;;;1.73;;
70169;SDS011;57543;45.442;9.212;2022-09-30T06:20:35;3.30;;;1.70;;
70169;SDS011;57543;45.442;9.212;2022-09-30T06:23:39;3.60;;;1.73;;
70169;SDS011;57543;45.442;9.212;2022-09-30T06:26:43;3.55;;;2.00;;
70169;SDS011;57543;45.442;9.212;2022-09-30T06:29:47;3.85;;;2.00;;
70169;SDS011;57543;45.442;9.212;2022-09-30T06:32:51;3.00;;;1.38;;
70169;SDS011;57543;45.442;9.212;2022-09-30T06:35:59;2.90;;;1.25;;
70169;SDS011;57543;45.442;9.212;2022-09-30T06:39:06;5.50;;;2.90;;
70169;SDS011;57543;45.442;9.212;2022-09-30T06:42:10;3.55;;;1.80;;
70169;SDS011;57543;45.442;9.212;2022-09-30T06:45:15;2.75;;;1.20;;
70169;SDS011;57543;45.442;9.212;2022-09-30T06:48:21;3.83;;;1.17;;
70169;SDS011;57543;45.442;9.212;2022-09-30T06:51:25;3.10;;;1.30;;
70169;SDS011;57543;45.442;9.212;2022-09-30T06:54:29;3.67;;;1.47;;
70169;SDS011;57543;45.442;9.212;2022-09-30T06:57:33;3.00;;;1.30;;
70169;SDS011;57543;45.442;9.212;2022-09-30T07:00:38;4.57;;;1.80;;
70169;SDS011;57543;45.442;9.212;2022-09-30T07:03:42;3.70;;;1.50;;
70169;SDS011;57543;45.442;9.212;2022-09-30T07:06:47;4.22;;;1.58;;
70169;SDS011;57543;45.442;9.212;2022-09-30T07:09:51;3.37;;;1.50;;
70169;SDS011;57543;45.442;9.212;2022-09-30T07:12:55;3.65;;;1.20;;
70169;SDS011;57543;45.442;9.212;2022-09-30T07:15:59;4.07;;;1.30;;
70169;SDS011;57543;45.442;9.212;2022-09-30T07:19:03;3.05;;;1.42;;
70169;SDS011;57543;45.442;9.212;2022-09-30T07:22:09;4.30;;;1.50;;
70169;SDS011;57543;45.442;9.212;2022-09-30T07:25:31;3.60;;;1.30;;
70169;SDS011;57543;45.442;9.212;2022-09-30T07:28:35;5.68;;;1.50;;
70169;SDS011;57543;45.442;9.212;2022-09-30T07:31:41;3.67;;;1.65;;
70169;SDS011;57543;45.442;9.212;2022-09-30T07:34:45;3.85;;;1.45;;
70169;SDS011;57543;45.442;9.212;2022-09-30T07:37:49;3.28;;;1.70;;
70169;SDS011;57543;45.442;9.212;2022-09-30T07:40:54;4.30;;;1.50;;
70169;SDS011;57543;45.442;9.212;2022-09-30T07:44:00;5.28;;;1.60;;
70169;SDS011;57543;45.442;9.212;2022-09-30T07:47:05;3.92;;;1.70;;
70169;SDS011;57543;45.442;9.212;2022-09-30T07:50:09;3.92;;;1.70;;
70169;SDS011;57543;45.442;9.212;2022-09-30T07:53:12;4.10;;;1.60;;
70169;SDS011;57543;45.442;9.212;2022-09-30T07:56:16;4.47;;;1.60;;
70169;SDS011;57543;45.442;9.212;2022-09-30T07:59:22;3.53;;;1.63;;
70169;SDS011;57543;45.442;9.212;2022-09-30T08:02:26;7.38;;;1.60;;
70169;SDS011;57543;45.442;9.212;2022-09-30T08:05:29;5.90;;;2.25;;
70169;SDS011;57543;45.442;9.212;2022-09-30T08:08:33;4.75;;;2.03;;
70169;SDS011;57543;45.442;9.212;2022-09-30T08:11:37;4.87;;;2.07;;
70169;SDS011;57543;45.442;9.212;2022-09-30T08:14:42;4.32;;;2.00;;
70169;SDS011;57543;45.442;9.212;2022-09-30T08:17:47;4.43;;;1.63;;
70169;SDS011;57543;45.442;9.212;2022-09-30T08:20:51;4.50;;;1.95;;
70169;SDS011;57543;45.442;9.212;2022-09-30T08:23:55;4.88;;;1.83;;
70169;SDS011;57543;45.442;9.212;2022-09-30T08:27:03;5.03;;;2.10;;
70169;SDS011;57543;45.442;9.212;2022-09-30T08:30:07;4.63;;;2.22;;
70169;SDS011;57543;45.442;9.212;2022-09-30T08:33:11;4.97;;;2.28;;
70169;SDS011;57543;45.442;9.212;2022-09-30T08:36:16;5.15;;;2.10;;
70169;SDS011;57543;45.442;9.212;2022-09-30T08:39:21;4.78;;;2.15;;
70169;SDS011;57543;45.442;9.212;2022-09-30T08:42:41;4.83;;;2.13;;
70169;SDS011;57543;45.442;9.212;2022-09-30T08:49:04;6.43;;;2.10;;
70169;SDS011;57543;45.442;9.212;2022-09-30T08:52:26;6.40;;;2.17;;
70169;SDS011;57543;45.442;9.212;2022-09-30T08:55:38;4.60;;;1.98;;
70169;SDS011;57543;45.442;9.212;2022-09-30T08:58:44;4.73;;;2.13;;
70169;SDS011;57543;45.442;9.212;2022-09-30T09:01:52;4.95;;;2.40;;
70169;SDS011;57543;45.442;9.212;2022-09-30T09:05:02;6.18;;;2.55;;
70169;SDS011;57543;45.442;9.212;2022-09-30T09:15:41;4.20;;;2.27;;
70169;SDS011;57543;45.442;9.212;2022-09-30T09:22:00;5.28;;;2.42;;
70169;SDS011;57543;45.442;9.212;2022-09-30T09:25:04;5.60;;;2.70;;
70169;SDS011;57543;45.442;9.212;2022-09-30T09:28:15;7.15;;;2.65;;
70169;SDS011;57543;45.442;9.212;2022-09-30T09:31:29;5.47;;;2.90;;
70169;SDS011;57543;45.442;9.212;2022-09-30T09:34:33;5.80;;;2.78;;
70169;SDS011;57543;45.442;9.212;2022-09-30T09:37:46;4.55;;;2.60;;
70169;SDS011;57543;45.442;9.212;2022-09-30T09:44:41;5.00;;;2.70;;
70169;SDS011;57543;45.442;9.212;2022-09-30T09:48:07;6.53;;;2.70;;
70169;SDS011;57543;45.442;9.212;2022-09-30T09:51:21;6.93;;;2.60;;
70169;SDS011;57543;45.442;9.212;2022-09-30T09:54:33;5.80;;;3.30;;
70169;SDS011;57543;45.442;9.212;2022-09-30T09:57:43;6.22;;;3.05;;
70169;SDS011;57543;45.442;9.212;2022-09-30T10:00:47;5.45;;;2.90;;
70169;SDS011;57543;45.442;9.212;2022-09-30T10:04:05;5.43;;;2.87;;
70169;SDS011;57543;45.442;9.212;2022-09-30T10:07:12;4.60;;;2.90;;
70169;SDS011;57543;45.442;9.212;2022-09-30T10:10:18;5.43;;;3.13;;
70169;SDS011;57543;45.442;9.212;2022-09-30T10:13:29;5.25;;;3.10;;
70169;SDS011;57543;45.442;9.212;2022-09-30T10:16:36;6.30;;;3.10;;
70169;SDS011;57543;45.442;9.212;2022-09-30T10:19:40;5.60;;;3.33;;
70169;SDS011;57543;45.442;9.212;2022-09-30T10:23:15;5.93;;;3.83;;
70169;SDS011;57543;45.442;9.212;2022-09-30T10:26:21;7.25;;;3.78;;
70169;SDS011;57543;45.442;9.212;2022-09-30T10:29:34;6.85;;;3.25;;
70169;SDS011;57543;45.442;9.212;2022-09-30T10:32:38;6.85;;;3.40;;
70169;SDS011;57543;45.442;9.212;2022-09-30T10:35:49;6.97;;;3.73;;
70169;SDS011;57543;45.442;9.212;2022-09-30T10:39:24;8.63;;;4.05;;
70169;SDS011;57543;45.442;9.212;2022-09-30T10:42:29;6.78;;;3.58;;
70169;SDS011;57543;45.442;9.212;2022-09-30T10:45:36;8.25;;;3.75;;
70169;SDS011;57543;45.442;9.212;2022-09-30T10:48:41;5.65;;;3.50;;
70169;SDS011;57543;45.442;9.212;2022-09-30T10:51:56;8.63;;;3.83;;
70169;SDS011;57543;45.442;9.212;2022-09-30T10:55:06;6.18;;;3.60;;
70169;SDS011;57543;45.442;9.212;2022-09-30T11:01:56;7.45;;;3.38;;
70169;SDS011;57543;45.442;9.212;2022-09-30T11:05:22;6.25;;;3.90;;
70169;SDS011;57543;45.442;9.212;2022-09-30T11:08:38;5.43;;;3.43;;
70169;SDS011;57543;45.442;9.212;2022-09-30T11:11:54;6.80;;;4.30;;
70169;SDS011;57543;45.442;9.212;2022-09-30T11:18:33;6.57;;;4.13;;
70169;SDS011;57543;45.442;9.212;2022-09-30T11:24:55;10.00;;;3.97;;
70169;SDS011;57543;45.442;9.212;2022-09-30T11:31:40;6.60;;;3.95;;
70169;SDS011;57543;45.442;9.212;2022-09-30T11:35:15;8.43;;;3.70;;
70169;SDS011;57543;45.442;9.212;2022-09-30T11:41:54;7.27;;;4.13;;
70169;SDS011;57543;45.442;9.212;2022-09-30T11:52:02;6.18;;;3.30;;
70169;SDS011;57543;45.442;9.212;2022-09-30T11:55:31;6.93;;;3.45;;
70169;SDS011;57543;45.442;9.212;2022-09-30T11:58:56;5.50;;;3.23;;
70169;SDS011;57543;45.442;9.212;2022-09-30T12:02:10;7.40;;;3.70;;
70169;SDS011;57543;45.442;9.212;2022-09-30T12:05:28;5.13;;;3.20;;
70169;SDS011;57543;45.442;9.212;2022-09-30T12:08:48;6.82;;;3.70;;
70169;SDS011;57543;45.442;9.212;2022-09-30T12:11:57;5.75;;;3.40;;
70169;SDS011;57543;45.442;9.212;2022-09-30T12:15:05;5.40;;;2.93;;
70169;SDS011;57543;45.442;9.212;2022-09-30T12:18:15;5.53;;;3.30;;
70169;SDS011;57543;45.442;9.212;2022-09-30T12:24:36;7.88;;;3.28;;
70169;SDS011;57543;45.442;9.212;2022-09-30T12:27:44;6.10;;;2.90;;
70169;SDS011;57543;45.442;9.212;2022-09-30T12:38:59;4.88;;;2.50;;
70169;SDS011;57543;45.442;9.212;2022-09-30T12:45:53;5.00;;;2.70;;
70169;SDS011;57543;45.442;9.212;2022-09-30T12:49:05;7.83;;;2.80;;
70169;SDS011;57543;45.442;9.212;2022-09-30T12:52:17;5.32;;;2.95;;
70169;SDS011;57543;45.442;9.212;2022-09-30T12:55:24;5.00;;;2.90;;
70169;SDS011;57543;45.442;9.212;2022-09-30T12:58:54;5.45;;;2.80;;
70169;SDS011;57543;45.442;9.212;2022-09-30T13:01:59;4.88;;;2.90;;
70169;SDS011;57543;45.442;9.212;2022-09-30T13:08:40;4.63;;;2.90;;
70169;SDS011;57543;45.442;9.212;2022-09-30T13:11:47;4.47;;;2.40;;
70169;SDS011;57543;45.442;9.212;2022-09-30T13:21:47;5.40;;;2.50;;
70169;SDS011;57543;45.442;9.212;2022-09-30T13:28:26;7.70;;;2.60;;
70169;SDS011;57543;45.442;9.212;2022-09-30T13:34:51;4.18;;;2.42;;
70169;SDS011;57543;45.442;9.212;2022-09-30T13:41:20;5.97;;;2.40;;
70169;SDS011;57543;45.442;9.212;2022-09-30T13:45:10;5.97;;;2.30;;
70169;SDS011;57543;45.442;9.212;2022-09-30T13:48:29;6.10;;;2.40;;
70169;SDS011;57543;45.442;9.212;2022-09-30T13:51:38;6.53;;;2.70;;
70169;SDS011;57543;45.442;9.212;2022-09-30T13:54:44;5.10;;;2.77;;
70169;SDS011;57543;45.442;9.212;2022-09-30T14:01:10;5.43;;;2.70;;
70169;SDS011;57543;45.442;9.212;2022-09-30T14:07:40;6.32;;;3.03;;
70169;SDS011;57543;45.442;9.212;2022-09-30T14:11:10;6.07;;;2.90;;
70169;SDS011;57543;45.442;9.212;2022-09-30T14:24:26;6.90;;;3.35;;
70169;SDS011;57543;45.442;9.212;2022-09-30T14:27:35;6.73;;;3.27;;
70169;SDS011;57543;45.442;9.212;2022-09-30T14:30:47;6.40;;;3.42;;
70169;SDS011;57543;45.442;9.212;2022-09-30T14:34:10;5.97;;;3.10;;
70169;SDS011;57543;45.442;9.212;2022-09-30T14:37:36;6.68;;;3.97;;
70169;SDS011;57543;45.442;9.212;2022-09-30T14:40:48;6.30;;;3.80;;
70169;SDS011;57543;45.442;9.212;2022-09-30T14:43:55;6.30;;;3.20;;
70169;SDS011;57543;45.442;9.212;2022-09-30T14:47:02;6.03;;;3.67;;
70169;SDS011;57543;45.442;9.212;2022-09-30T14:50:17;5.68;;;3.58;;
70169;SDS011;57543;45.442;9.212;2022-09-30T14:53:26;6.10;;;3.70;;
70169;SDS011;57543;45.442;9.212;2022-09-30T14:56:32;6.75;;;3.70;;
70169;SDS011;57543;45.442;9.212;2022-09-30T14:59:38;6.40;;;4.07;;
70169;SDS011;57543;45.442;9.212;2022-09-30T15:02:42;7.28;;;3.42;;
70169;SDS011;57543;45.442;9.212;2022-09-30T15:05:47;5.35;;;3.30;;
70169;SDS011;57543;45.442;9.212;2022-09-30T15:08:52;5.57;;;3.60;;
70169;SDS011;57543;45.442;9.212;2022-09-30T15:18:31;6.90;;;3.40;;
70169;SDS011;57543;45.442;9.212;2022-09-30T15:21:38;7.00;;;3.30;;
70169;SDS011;57543;45.442;9.212;2022-09-30T15:24:41;5.75;;;3.05;;
70169;SDS011;57543;45.442;9.212;2022-09-30T15:27:47;10.40;;;4.82;;
70169;SDS011;57543;45.442;9.212;2022-09-30T15:30:52;8.80;;;4.00;;
70169;SDS011;57543;45.442;9.212;2022-09-30T15:37:22;8.15;;;4.85;;
70169;SDS011;57543;45.442;9.212;2022-09-30T15:40:28;8.48;;;4.88;;
70169;SDS011;57543;45.442;9.212;2022-09-30T15:43:52;7.22;;;4.05;;
70169;SDS011;57543;45.442;9.212;2022-09-30T15:47:00;7.97;;;4.03;;
70169;SDS011;57543;45.442;9.212;2022-09-30T15:57:37;9.88;;;5.05;;
70169;SDS011;57543;45.442;9.212;2022-09-30T16:00:47;9.00;;;5.50;;
70169;SDS011;57543;45.442;9.212;2022-09-30T16:03:52;9.63;;;5.27;;
70169;SDS011;57543;45.442;9.212;2022-09-30T16:07:05;12.15;;;6.18;;
70169;SDS011;57543;45.442;9.212;2022-09-30T16:10:17;10.38;;;5.97;;
70169;SDS011;57543;45.442;9.212;2022-09-30T16:13:26;8.00;;;5.25;;
70169;SDS011;57543;45.442;9.212;2022-09-30T16:16:33;6.95;;;4.45;;
70169;SDS011;57543;45.442;9.212;2022-09-30T16:19:38;7.23;;;4.47;;
70169;SDS011;57543;45.442;9.212;2022-09-30T16:25:46;9.10;;;4.57;;
70169;SDS011;57543;45.442;9.212;2022-09-30T16:28:50;7.60;;;4.60;;
70169;SDS011;57543;45.442;9.212;2022-09-30T16:31:54;7.30;;;4.70;;
70169;SDS011;57543;45.442;9.212;2022-09-30T16:34:58;7.87;;;4.50;;
70169;SDS011;57543;45.442;9.212;2022-09-30T16:38:04;9.13;;;4.38;;
70169;SDS011;57543;45.442;9.212;2022-09-30T16:41:11;7.10;;;4.25;;
70169;SDS011;57543;45.442;9.212;2022-09-30T16:44:16;7.70;;;4.82;;
70169;SDS011;57543;45.442;9.212;2022-09-30T16:47:20;7.22;;;4.75;;
70169;SDS011;57543;45.442;9.212;2022-09-30T16:53:45;7.00;;;4.53;;
70169;SDS011;57543;45.442;9.212;2022-09-30T16:56:50;7.45;;;4.60;;
70169;SDS011;57543;45.442;9.212;2022-09-30T16:59:53;6.55;;;4.68;;
70169;SDS011;57543;45.442;9.212;2022-09-30T17:02:57;7.35;;;4.40;;
70169;SDS011;57543;45.442;9.212;2022-09-30T17:06:01;6.23;;;4.30;;
70169;SDS011;57543;45.442;9.212;2022-09-30T17:09:05;6.75;;;4.43;;
70169;SDS011;57543;45.442;9.212;2022-09-30T17:12:10;7.65;;;4.72;;
70169;SDS011;57543;45.442;9.212;2022-09-30T17:15:15;8.18;;;4.18;;
70169;SDS011;57543;45.442;9.212;2022-09-30T17:18:22;6.85;;;4.57;;
70169;SDS011;57543;45.442;9.212;2022-09-30T17:21:26;6.83;;;4.60;;
70169;SDS011;57543;45.442;9.212;2022-09-30T17:24:30;6.70;;;4.50;;
70169;SDS011;57543;45.442;9.212;2022-09-30T17:27:34;6.53;;;4.57;;
70169;SDS011;57543;45.442;9.212;2022-09-30T17:30:38;6.43;;;4.40;;
70169;SDS011;57543;45.442;9.212;2022-09-30T17:33:43;7.88;;;4.82;;
70169;SDS011;57543;45.442;9.212;2022-09-30T17:36:47;7.43;;;4.70;;
70169;SDS011;57543;45.442;9.212;2022-09-30T17:39:51;8.77;;;4.65;;
70169;SDS011;57543;45.442;9.212;2022-09-30T17:42:54;6.63;;;4.43;;
70169;SDS011;57543;45.442;9.212;2022-09-30T17:46:13;5.78;;;3.90;;
70169;SDS011;57543;45.442;9.212;2022-09-30T17:49:21;8.15;;;4.03;;
70169;SDS011;57543;45.442;9.212;2022-09-30T17:52:25;7.53;;;4.10;;
70169;SDS011;57543;45.442;9.212;2022-09-30T17:55:29;7.07;;;4.00;;
70169;SDS011;57543;45.442;9.212;2022-09-30T17:58:33;5.90;;;3.65;;
70169;SDS011;57543;45.442;9.212;2022-09-30T18:01:37;6.03;;;3.50;;
70169;SDS011;57543;45.442;9.212;2022-09-30T18:04:44;6.40;;;3.60;;
70169;SDS011;57543;45.442;9.212;2022-09-30T18:07:48;6.97;;;3.43;;
70169;SDS011;57543;45.442;9.212;2022-09-30T18:10:52;6.82;;;3.33;;
70169;SDS011;57543;45.442;9.212;2022-09-30T18:13:56;7.20;;;3.90;;
70169;SDS011;57543;45.442;9.212;2022-09-30T18:17:02;6.22;;;3.40;;
70169;SDS011;57543;45.442;9.212;2022-09-30T18:20:08;8.15;;;4.68;;
70169;SDS011;57543;45.442;9.212;2022-09-30T18:23:12;7.73;;;4.33;;
70169;SDS011;57543;45.442;9.212;2022-09-30T18:26:17;7.55;;;3.97;;
70169;SDS011;57543;45.442;9.212;2022-09-30T18:29:21;11.05;;;4.65;;
70169;SDS011;57543;45.442;9.212;2022-09-30T18:32:26;9.73;;;4.20;;
70169;SDS011;57543;45.442;9.212;2022-09-30T18:35:30;8.38;;;4.28;;
70169;SDS011;57543;45.442;9.212;2022-09-30T18:38:35;8.03;;;4.17;;
70169;SDS011;57543;45.442;9.212;2022-09-30T18:41:39;8.25;;;4.07;;
70169;SDS011;57543;45.442;9.212;2022-09-30T18:44:46;8.23;;;3.53;;
70169;SDS011;57543;45.442;9.212;2022-09-30T18:47:52;7.55;;;3.90;;
70169;SDS011;57543;45.442;9.212;2022-09-30T18:51:00;7.97;;;4.50;;
70169;SDS011;57543;45.442;9.212;2022-09-30T18:54:05;7.67;;;4.37;;
70169;SDS011;57543;45.442;9.212;2022-09-30T18:57:09;9.40;;;4.78;;
70169;SDS011;57543;45.442;9.212;2022-09-30T19:00:13;8.50;;;4.90;;
70169;SDS011;57543;45.442;9.212;2022-09-30T19:03:22;8.63;;;4.40;;
70169;SDS011;57543;45.442;9.212;2022-09-30T19:06:26;8.10;;;4.82;;
70169;SDS011;57543;45.442;9.212;2022-09-30T19:09:30;8.83;;;4.80;;
70169;SDS011;57543;45.442;9.212;2022-09-30T19:12:34;10.73;;;5.40;;
70169;SDS011;57543;45.442;9.212;2022-09-30T19:15:40;8.80;;;4.93;;
70169;SDS011;57543;45.442;9.212;2022-09-30T19:18:44;9.98;;;6.13;;
70169;SDS011;57543;45.442;9.212;2022-09-30T19:21:49;9.23;;;5.38;;
70169;SDS011;57543;45.442;9.212;2022-09-30T19:24:53;11.73;;;6.20;;
70169;SDS011;57543;45.442;9.212;2022-09-30T19:27:57;10.05;;;5.85;;
70169;SDS011;57543;45.442;9.212;2022-09-30T19:31:09;9.02;;;5.97;;
70169;SDS011;57543;45.442;9.212;2022-09-30T19:34:14;12.20;;;7.25;;
70169;SDS011;57543;45.442;9.212;2022-09-30T19:37:18;10.48;;;6.65;;
70169;SDS011;57543;45.442;9.212;2022-09-30T19:40:22;10.40;;;6.63;;
70169;SDS011;57543;45.442;9.212;2022-09-30T19:43:29;10.20;;;6.57;;
70169;SDS011;57543;45.442;9.212;2022-09-30T19:46:33;12.15;;;6.57;;
70169;SDS011;57543;45.442;9.212;2022-09-30T19:49:37;8.48;;;5.40;;
70169;SDS011;57543;45.442;9.212;2022-09-30T19:52:41;9.85;;;5.90;;
70169;SDS011;57543;45.442;9.212;2022-09-30T19:55:45;8.03;;;5.50;;
70169;SDS011;57543;45.442;9.212;2022-09-30T19:58:51;9.00;;;6.15;;
70169;SDS011;57543;45.442;9.212;2022-09-30T20:01:56;8.98;;;5.85;;
70169;SDS011;57543;45.442;9.212;2022-09-30T20:05:01;11.68;;;6.28;;
70169;SDS011;57543;45.442;9.212;2022-09-30T20:08:06;10.02;;;6.47;;
70169;SDS011;57543;45.442;9.212;2022-09-30T20:11:13;11.27;;;8.00;;
70169;SDS011;57543;45.442;9.212;2022-09-30T20:14:17;14.18;;;8.85;;
70169;SDS011;57543;45.442;9.212;2022-09-30T20:17:40;17.35;;;8.85;;
70169;SDS011;57543;45.442;9.212;2022-09-30T20:20:43;14.32;;;9.60;;
70169;SDS011;57543;45.442;9.212;2022-09-30T20:23:48;16.27;;;9.65;;
70169;SDS011;57543;45.442;9.212;2022-09-30T20:26:52;16.00;;;10.40;;
70169;SDS011;57543;45.442;9.212;2022-09-30T20:29:56;15.85;;;11.32;;
70169;SDS011;57543;45.442;9.212;2022-09-30T20:32:59;16.67;;;11.00;;
70169;SDS011;57543;45.442;9.212;2022-09-30T20:36:04;16.08;;;10.43;;
70169;SDS011;57543;45.442;9.212;2022-09-30T20:39:09;17.10;;;10.65;;
70169;SDS011;57543;45.442;9.212;2022-09-30T20:42:14;16.67;;;10.80;;
70169;SDS011;57543;45.442;9.212;2022-09-30T20:45:17;15.93;;;10.73;;
70169;SDS011;57543;45.442;9.212;2022-09-30T20:48:21;15.02;;;10.45;;
70169;SDS011;57543;45.442;9.212;2022-09-30T20:51:26;16.13;;;10.48;;
70169;SDS011;57543;45.442;9.212;2022-09-30T20:54:31;15.40;;;10.48;;
70169;SDS011;57543;45.442;9.212;2022-09-30T20:57:40;16.40;;;10.80;;
70169;SDS011;57543;45.442;9.212;2022-09-30T21:00:45;17.67;;;10.45;;
70169;SDS011;57543;45.442;9.212;2022-09-30T21:03:50;17.02;;;10.93;;
70169;SDS011;57543;45.442;9.212;2022-09-30T21:06:55;15.45;;;10.00;;
70169;SDS011;57543;45.442;9.212;2022-09-30T21:09:58;16.17;;;9.45;;
70169;SDS011;57543;45.442;9.212;2022-09-30T21:13:06;13.00;;;8.70;;
70169;SDS011;57543;45.442;9.212;2022-09-30T21:16:12;15.27;;;8.23;;
70169;SDS011;57543;45.442;9.212;2022-09-30T21:19:18;13.23;;;7.93;;
70169;SDS011;57543;45.442;9.212;2022-09-30T21:22:21;10.52;;;6.45;;
70169;SDS011;57543;45.442;9.212;2022-09-30T21:25:25;10.45;;;6.30;;
70169;SDS011;57543;45.442;9.212;2022-09-30T21:28:29;11.10;;;5.80;;
70169;SDS011;57543;45.442;9.212;2022-09-30T21:31:33;9.52;;;5.70;;
70169;SDS011;57543;45.442;9.212;2022-09-30T21:34:37;9.55;;;5.57;;
70169;SDS011;57543;45.442;9.212;2022-09-30T21:37:41;9.90;;;5.57;;
70169;SDS011;57543;45.442;9.212;2022-09-30T21:40:45;7.88;;;4.78;;
70169;SDS011;57543;45.442;9.212;2022-09-30T21:43:51;8.77;;;5.53;;
70169;SDS011;57543;45.442;9.212;2022-09-30T21:46:55;10.25;;;5.30;;